sensor_id;sensor_type;location;lat;lon;timestamp;pressure;altitude;pressure_sealevel;temperature;humidity
62708;BME280;48769;51.624;5.886;2023-01-25T00:00:39;103558.28;;;2.28;100.00
62708;BME280;48769;51.624;5.886;2023-01-25T00:03:05;103560.75;;;2.24;100.00
62708;BME280;48769;51.624;5.886;2023-01-25T00:05:30;103553.78;;;2.23;100.00
62708;BME280;48769;51.624;5.886;2023-01-25T00:07:55;103559.97;;;2.26;100.00
62708;BME280;48769;51.624;5.886;2023-01-25T00:10:21;103556.50;;;2.27;100.00
62708;BME280;48769;51.624;5.886;2023-01-25T00:12:46;103557.63;;;2.37;100.00
62708;BME280;48769;51.624;5.886;2023-01-25T00:15:11;103556.22;;;2.50;100.00
62708;BME280;48769;51.624;5.886;2023-01-25T00:17:37;103547.16;;;2.34;100.00
62708;BME280;48769;51.624;5.886;2023-01-25T00:20:02;103553.63;;;2.17;100.00
62708;BME280;48769;51.624;5.886;2023-01-25T00:22:28;103552.91;;;2.22;100.00
62708;BME280;48769;51.624;5.886;2023-01-25T00:24:53;103546.16;;;2.30;100.00
62708;BME280;48769;51.624;5.886;2023-01-25T00:27:18;103536.72;;;2.36;100.00
62708;BME280;48769;51.624;5.886;2023-01-25T00:29:43;103541.31;;;2.44;100.00
62708;BME280;48769;51.624;5.886;2023-01-25T00:34:43;103533.78;;;2.22;100.00
62708;BME280;48769;51.624;5.886;2023-01-25T00:37:38;103533.09;;;2.29;100.00
62708;BME280;48769;51.624;5.886;2023-01-25T00:40:04;103533.16;;;2.32;100.00
62708;BME280;48769;51.624;5.886;2023-01-25T00:42:30;103536.84;;;2.40;100.00
62708;BME280;48769;51.624;5.886;2023-01-25T00:44:55;103530.41;;;2.27;100.00
62708;BME280;48769;51.624;5.886;2023-01-25T00:47:21;103531.09;;;2.19;100.00
62708;BME280;48769;51.624;5.886;2023-01-25T00:49:46;103529.97;;;2.10;100.00
62708;BME280;48769;51.624;5.886;2023-01-25T00:52:12;103518.88;;;2.18;100.00
62708;BME280;48769;51.624;5.886;2023-01-25T00:54:38;103521.44;;;2.16;100.00
62708;BME280;48769;51.624;5.886;2023-01-25T00:57:03;103525.94;;;2.22;100.00
62708;BME280;48769;51.624;5.886;2023-01-25T00:59:29;103522.50;;;2.23;100.00
62708;BME280;48769;51.624;5.886;2023-01-25T01:01:54;103518.94;;;2.21;100.00
62708;BME280;48769;51.624;5.886;2023-01-25T01:04:20;103526.03;;;2.25;100.00
62708;BME280;48769;51.624;5.886;2023-01-25T01:06:49;103524.50;;;2.33;100.00
62708;BME280;48769;51.624;5.886;2023-01-25T01:09:16;103525.50;;;2.38;100.00
62708;BME280;48769;51.624;5.886;2023-01-25T01:11:42;103522.09;;;2.41;100.00
62708;BME280;48769;51.624;5.886;2023-01-25T01:14:08;103514.22;;;2.39;100.00
62708;BME280;48769;51.624;5.886;2023-01-25T01:16:33;103520.38;;;2.41;100.00
62708;BME280;48769;51.624;5.886;2023-01-25T01:18:59;103520.38;;;2.41;100.00
62708;BME280;48769;51.624;5.886;2023-01-25T01:21:24;103523.06;;;2.44;100.00
62708;BME280;48769;51.624;5.886;2023-01-25T01:23:49;103521.34;;;2.46;100.00
62708;BME280;48769;51.624;5.886;2023-01-25T01:26:16;103523.13;;;2.47;100.00
62708;BME280;48769;51.624;5.886;2023-01-25T01:28:48;103523.16;;;2.49;100.00
62708;BME280;48769;51.624;5.886;2023-01-25T01:31:15;103514.59;;;2.54;100.00
62708;BME280;48769;51.624;5.886;2023-01-25T01:33:41;103516.34;;;2.54;100.00
62708;BME280;48769;51.624;5.886;2023-01-25T01:36:12;103518.94;;;2.54;100.00
62708;BME280;48769;51.624;5.886;2023-01-25T01:38:38;103522.34;;;2.51;100.00
62708;BME280;48769;51.624;5.886;2023-01-25T01:41:04;103517.09;;;2.50;100.00
62708;BME280;48769;51.624;5.886;2023-01-25T01:43:29;103513.44;;;2.43;100.00
62708;BME280;48769;51.624;5.886;2023-01-25T01:46:00;103516.75;;;2.36;100.00
62708;BME280;48769;51.624;5.886;2023-01-25T01:48:46;103519.97;;;2.27;100.00
62708;BME280;48769;51.624;5.886;2023-01-25T01:51:14;103522.28;;;2.15;100.00
62708;BME280;48769;51.624;5.886;2023-01-25T01:53:47;103513.72;;;2.21;100.00
62708;BME280;48769;51.624;5.886;2023-01-25T01:56:18;103516.34;;;2.21;100.00
62708;BME280;48769;51.624;5.886;2023-01-25T01:58:45;103508.31;;;2.13;100.00
62708;BME280;48769;51.624;5.886;2023-01-25T02:01:11;103521.03;;;2.01;100.00
62708;BME280;48769;51.624;5.886;2023-01-25T02:03:37;103519.53;;;2.09;100.00
62708;BME280;48769;51.624;5.886;2023-01-25T02:06:10;103511.81;;;2.14;100.00
62708;BME280;48769;51.624;5.886;2023-01-25T02:08:37;103520.75;;;2.23;100.00
62708;BME280;48769;51.624;5.886;2023-01-25T02:11:06;103519.25;;;2.31;100.00
62708;BME280;48769;51.624;5.886;2023-01-25T02:13:33;103514.13;;;2.36;100.00
62708;BME280;48769;51.624;5.886;2023-01-25T02:15:59;103510.81;;;2.43;100.00
62708;BME280;48769;51.624;5.886;2023-01-25T02:18:25;103511.75;;;2.45;100.00
62708;BME280;48769;51.624;5.886;2023-01-25T02:20:52;103508.28;;;2.46;100.00
62708;BME280;48769;51.624;5.886;2023-01-25T02:23:36;103505.69;;;2.46;100.00
62708;BME280;48769;51.624;5.886;2023-01-25T02:26:06;103507.97;;;2.32;100.00
62708;BME280;48769;51.624;5.886;2023-01-25T02:29:21;103509.69;;;2.32;100.00
62708;BME280;48769;51.624;5.886;2023-01-25T02:31:26;103500.31;;;2.40;100.00
62708;BME280;48769;51.624;5.886;2023-01-25T02:33:51;103489.97;;;2.43;100.00
62708;BME280;48769;51.624;5.886;2023-01-25T02:36:24;103496.56;;;2.29;100.00
62708;BME280;48769;51.624;5.886;2023-01-25T02:38:54;103490.50;;;2.30;100.00
62708;BME280;48769;51.624;5.886;2023-01-25T02:43:56;103488.03;;;2.36;100.00
62708;BME280;48769;51.624;5.886;2023-01-25T02:46:32;103481.22;;;2.41;100.00
62708;BME280;48769;51.624;5.886;2023-01-25T02:49:00;103488.28;;;2.45;100.00
62708;BME280;48769;51.624;5.886;2023-01-25T02:51:28;103485.59;;;2.42;100.00
62708;BME280;48769;51.624;5.886;2023-01-25T02:53:54;103489.13;;;2.44;100.00
62708;BME280;48769;51.624;5.886;2023-01-25T02:56:20;103476.63;;;2.31;100.00
62708;BME280;48769;51.624;5.886;2023-01-25T02:58:45;103476.72;;;2.34;100.00
62708;BME280;48769;51.624;5.886;2023-01-25T03:01:11;103482.13;;;2.43;100.00
62708;BME280;48769;51.624;5.886;2023-01-25T03:03:37;103477.78;;;2.44;100.00
62708;BME280;48769;51.624;5.886;2023-01-25T03:06:03;103473.13;;;2.30;100.00
62708;BME280;48769;51.624;5.886;2023-01-25T03:08:28;103472.00;;;2.21;100.00
62708;BME280;48769;51.624;5.886;2023-01-25T03:10:57;103470.41;;;2.26;100.00
62708;BME280;48769;51.624;5.886;2023-01-25T03:13:24;103469.56;;;2.27;100.00
62708;BME280;48769;51.624;5.886;2023-01-25T03:15:49;103468.41;;;2.16;100.00
62708;BME280;48769;51.624;5.886;2023-01-25T03:18:15;103465.13;;;2.23;100.00
62708;BME280;48769;51.624;5.886;2023-01-25T03:20:40;103461.44;;;2.15;100.00
62708;BME280;48769;51.624;5.886;2023-01-25T03:23:05;103466.56;;;2.12;100.00
62708;BME280;48769;51.624;5.886;2023-01-25T03:25:31;103466.66;;;2.15;100.00
62708;BME280;48769;51.624;5.886;2023-01-25T03:27:56;103463.28;;;2.19;100.00
62708;BME280;48769;51.624;5.886;2023-01-25T03:30:22;103458.97;;;2.21;100.00
62708;BME280;48769;51.624;5.886;2023-01-25T03:32:47;103453.00;;;2.25;100.00
62708;BME280;48769;51.624;5.886;2023-01-25T03:35:12;103453.81;;;2.22;100.00
62708;BME280;48769;51.624;5.886;2023-01-25T03:37:38;103447.47;;;2.13;100.00
62708;BME280;48769;51.624;5.886;2023-01-25T03:40:03;103447.16;;;2.00;100.00
62708;BME280;48769;51.624;5.886;2023-01-25T03:42:29;103443.66;;;1.98;100.00
62708;BME280;48769;51.624;5.886;2023-01-25T03:44:54;103443.66;;;1.98;100.00
62708;BME280;48769;51.624;5.886;2023-01-25T03:47:20;103439.31;;;1.99;100.00
62708;BME280;48769;51.624;5.886;2023-01-25T03:49:45;103440.19;;;1.99;100.00
62708;BME280;48769;51.624;5.886;2023-01-25T03:52:10;103446.38;;;2.04;100.00
62708;BME280;48769;51.624;5.886;2023-01-25T03:54:36;103444.53;;;2.00;100.00
62708;BME280;48769;51.624;5.886;2023-01-25T03:57:01;103442.81;;;2.01;100.00
62708;BME280;48769;51.624;5.886;2023-01-25T03:59:26;103451.41;;;1.97;100.00
62708;BME280;48769;51.624;5.886;2023-01-25T04:01:51;103450.28;;;1.87;100.00
62708;BME280;48769;51.624;5.886;2023-01-25T04:04:17;103448.38;;;1.81;100.00
62708;BME280;48769;51.624;5.886;2023-01-25T04:06:42;103444.66;;;1.72;100.00
62708;BME280;48769;51.624;5.886;2023-01-25T04:09:07;103436.13;;;1.77;100.00
62708;BME280;48769;51.624;5.886;2023-01-25T04:11:33;103432.41;;;1.68;100.00
62708;BME280;48769;51.624;5.886;2023-01-25T04:13:58;103433.94;;;1.59;100.00
62708;BME280;48769;51.624;5.886;2023-01-25T04:16:23;103433.84;;;1.56;100.00
62708;BME280;48769;51.624;5.886;2023-01-25T04:18:49;103431.53;;;1.67;100.00
62708;BME280;48769;51.624;5.886;2023-01-25T04:21:14;103417.63;;;1.67;100.00
62708;BME280;48769;51.624;5.886;2023-01-25T04:23:39;103425.44;;;1.67;100.00
62708;BME280;48769;51.624;5.886;2023-01-25T04:26:06;103430.72;;;1.70;100.00
62708;BME280;48769;51.624;5.886;2023-01-25T04:28:33;103430.16;;;1.81;100.00
62708;BME280;48769;51.624;5.886;2023-01-25T04:30:59;103422.31;;;1.80;100.00
62708;BME280;48769;51.624;5.886;2023-01-25T04:33:25;103428.84;;;1.66;100.00
62708;BME280;48769;51.624;5.886;2023-01-25T04:35:51;103423.81;;;1.72;100.00
62708;BME280;48769;51.624;5.886;2023-01-25T04:38:17;103412.72;;;1.79;100.00
62708;BME280;48769;51.624;5.886;2023-01-25T04:40:43;103416.22;;;1.79;100.00
62708;BME280;48769;51.624;5.886;2023-01-25T04:43:10;103412.13;;;1.89;100.00
62708;BME280;48769;51.624;5.886;2023-01-25T04:45:36;103410.41;;;1.91;100.00
62708;BME280;48769;51.624;5.886;2023-01-25T04:48:04;103403.28;;;1.84;100.00
62708;BME280;48769;51.624;5.886;2023-01-25T04:50:30;103405.78;;;1.79;100.00
62708;BME280;48769;51.624;5.886;2023-01-25T04:52:56;103397.91;;;1.78;100.00
62708;BME280;48769;51.624;5.886;2023-01-25T04:55:22;103404.75;;;1.73;100.00
62708;BME280;48769;51.624;5.886;2023-01-25T04:57:50;103401.28;;;1.74;100.00
62708;BME280;48769;51.624;5.886;2023-01-25T05:00:17;103398.69;;;1.74;100.00
62708;BME280;48769;51.624;5.886;2023-01-25T05:02:42;103392.59;;;1.73;100.00
62708;BME280;48769;51.624;5.886;2023-01-25T05:05:08;103392.69;;;1.78;100.00
62708;BME280;48769;51.624;5.886;2023-01-25T05:07:34;103383.97;;;1.76;100.00
62708;BME280;48769;51.624;5.886;2023-01-25T05:09:59;103386.44;;;1.70;100.00
62708;BME280;48769;51.624;5.886;2023-01-25T05:12:25;103398.53;;;1.68;100.00
62708;BME280;48769;51.624;5.886;2023-01-25T05:14:50;103389.84;;;1.69;100.00
62708;BME280;48769;51.624;5.886;2023-01-25T05:17:15;103389.81;;;1.67;100.00
62708;BME280;48769;51.624;5.886;2023-01-25T05:19:41;103388.00;;;1.63;100.00
62708;BME280;48769;51.624;5.886;2023-01-25T05:22:06;103386.63;;;1.77;100.00
62708;BME280;48769;51.624;5.886;2023-01-25T05:24:35;103393.03;;;1.90;100.00
62708;BME280;48769;51.624;5.886;2023-01-25T05:27:01;103392.06;;;1.86;100.00
62708;BME280;48769;51.624;5.886;2023-01-25T05:29:41;103389.47;;;1.88;100.00
62708;BME280;48769;51.624;5.886;2023-01-25T05:34:36;103385.31;;;1.95;100.00
62708;BME280;48769;51.624;5.886;2023-01-25T05:37:04;103395.00;;;2.00;100.00
62708;BME280;48769;51.624;5.886;2023-01-25T05:39:30;103396.63;;;1.95;100.00
62708;BME280;48769;51.624;5.886;2023-01-25T05:41:55;103392.84;;;1.82;100.00
62708;BME280;48769;51.624;5.886;2023-01-25T05:44:21;103390.78;;;1.71;100.00
62708;BME280;48769;51.624;5.886;2023-01-25T05:46:47;103383.66;;;1.63;100.00
62708;BME280;48769;51.624;5.886;2023-01-25T05:49:12;103382.69;;;1.60;100.00
62708;BME280;48769;51.624;5.886;2023-01-25T05:51:38;103383.75;;;1.67;100.00
62708;BME280;48769;51.624;5.886;2023-01-25T05:54:04;103382.19;;;1.75;100.00
62708;BME280;48769;51.624;5.886;2023-01-25T05:56:31;103382.13;;;1.72;100.00
62708;BME280;48769;51.624;5.886;2023-01-25T05:58:57;103381.69;;;1.55;100.00
62708;BME280;48769;51.624;5.886;2023-01-25T06:01:24;103393.66;;;1.48;100.00
62708;BME280;48769;51.624;5.886;2023-01-25T06:03:50;103380.81;;;1.56;100.00
62708;BME280;48769;51.624;5.886;2023-01-25T06:06:15;103378.47;;;1.65;100.00
62708;BME280;48769;51.624;5.886;2023-01-25T06:08:40;103382.13;;;1.72;100.00
62708;BME280;48769;51.624;5.886;2023-01-25T06:11:17;103387.31;;;1.70;100.00
62708;BME280;48769;51.624;5.886;2023-01-25T06:13:44;103383.81;;;1.70;100.00
62708;BME280;48769;51.624;5.886;2023-01-25T06:16:10;103371.59;;;1.69;100.00
62708;BME280;48769;51.624;5.886;2023-01-25T06:18:36;103381.22;;;1.70;100.00
62708;BME280;48769;51.624;5.886;2023-01-25T06:21:02;103380.97;;;1.60;100.00
62708;BME280;48769;51.624;5.886;2023-01-25T06:23:28;103385.31;;;1.61;100.00
62708;BME280;48769;51.624;5.886;2023-01-25T06:25:58;103373.47;;;1.73;100.00
62708;BME280;48769;51.624;5.886;2023-01-25T06:28:24;103375.22;;;1.74;100.00
62708;BME280;48769;51.624;5.886;2023-01-25T06:30:49;103372.63;;;1.74;100.00
62708;BME280;48769;51.624;5.886;2023-01-25T06:33:14;103367.16;;;1.63;100.00
62708;BME280;48769;51.624;5.886;2023-01-25T06:35:39;103378.53;;;1.67;100.00
62708;BME280;48769;51.624;5.886;2023-01-25T06:38:05;103375.06;;;1.68;100.00
62708;BME280;48769;51.624;5.886;2023-01-25T06:40:31;103379.47;;;1.70;100.00
62708;BME280;48769;51.624;5.886;2023-01-25T06:43:05;103370.09;;;1.77;100.00
62708;BME280;48769;51.624;5.886;2023-01-25T06:45:31;103367.84;;;1.57;100.00
62708;BME280;48769;51.624;5.886;2023-01-25T06:47:57;103370.63;;;1.63;100.00
62708;BME280;48769;51.624;5.886;2023-01-25T06:50:22;103371.44;;;1.62;100.00
62708;BME280;48769;51.624;5.886;2023-01-25T06:52:54;103373.84;;;1.53;100.00
62708;BME280;48769;51.624;5.886;2023-01-25T06:55:20;103371.84;;;1.43;100.00
62708;BME280;48769;51.624;5.886;2023-01-25T06:57:45;103372.56;;;1.39;100.00
62708;BME280;48769;51.624;5.886;2023-01-25T07:00:12;103372.09;;;1.21;100.00
62708;BME280;48769;51.624;5.886;2023-01-25T07:02:37;103386.94;;;1.25;100.00
62708;BME280;48769;51.624;5.886;2023-01-25T07:05:03;103381.16;;;1.35;100.00
62708;BME280;48769;51.624;5.886;2023-01-25T07:07:28;103373.13;;;1.27;100.00
62708;BME280;48769;51.624;5.886;2023-01-25T07:09:54;103366.22;;;1.29;100.00
62708;BME280;48769;51.624;5.886;2023-01-25T07:12:19;103374.28;;;1.37;100.00
62708;BME280;48769;51.624;5.886;2023-01-25T07:14:44;103381.41;;;1.44;100.00
62708;BME280;48769;51.624;5.886;2023-01-25T07:17:12;103373.88;;;1.55;100.00
62708;BME280;48769;51.624;5.886;2023-01-25T07:19:37;103377.44;;;1.58;100.00
62708;BME280;48769;51.624;5.886;2023-01-25T07:22:03;103375.06;;;1.68;100.00
62708;BME280;48769;51.624;5.886;2023-01-25T07:24:28;103370.88;;;1.73;100.00
62708;BME280;48769;51.624;5.886;2023-01-25T07:26:53;103363.84;;;1.70;100.00
62708;BME280;48769;51.624;5.886;2023-01-25T07:29:19;103361.00;;;1.61;100.00
62708;BME280;48769;51.624;5.886;2023-01-25T07:31:44;103358.47;;;1.64;100.00
62708;BME280;48769;51.624;5.886;2023-01-25T07:34:10;103357.53;;;1.60;100.00
62708;BME280;48769;51.624;5.886;2023-01-25T07:36:37;103357.59;;;1.63;100.00
62708;BME280;48769;51.624;5.886;2023-01-25T07:39:03;103355.91;;;1.66;100.00
62708;BME280;48769;51.624;5.886;2023-01-25T07:41:29;103355.91;;;1.66;100.00
62708;BME280;48769;51.624;5.886;2023-01-25T07:43:54;103349.88;;;1.68;100.00
62708;BME280;48769;51.624;5.886;2023-01-25T07:46:20;103355.16;;;1.70;100.00
62708;BME280;48769;51.624;5.886;2023-01-25T07:48:47;103348.16;;;1.69;100.00
62708;BME280;48769;51.624;5.886;2023-01-25T07:51:14;103355.16;;;1.70;100.00
62708;BME280;48769;51.624;5.886;2023-01-25T07:53:56;103355.41;;;1.79;100.00
62708;BME280;48769;51.624;5.886;2023-01-25T07:56:26;103352.00;;;1.83;100.00
62708;BME280;48769;51.624;5.886;2023-01-25T07:58:54;103356.28;;;1.81;100.00
62708;BME280;48769;51.624;5.886;2023-01-25T08:01:21;103351.00;;;1.78;100.00
62708;BME280;48769;51.624;5.886;2023-01-25T08:03:48;103356.22;;;1.78;100.00
62708;BME280;48769;51.624;5.886;2023-01-25T08:06:14;103354.28;;;1.69;100.00
62708;BME280;48769;51.624;5.886;2023-01-25T08:08:45;103351.63;;;1.68;100.00
62708;BME280;48769;51.624;5.886;2023-01-25T08:11:21;103352.47;;;1.67;100.00
62708;BME280;48769;51.624;5.886;2023-01-25T08:13:47;103350.59;;;1.62;100.00
62708;BME280;48769;51.624;5.886;2023-01-25T08:16:15;103347.91;;;1.58;100.00
62708;BME280;48769;51.624;5.886;2023-01-25T08:18:41;103353.09;;;1.58;100.00
62708;BME280;48769;51.624;5.886;2023-01-25T08:21:07;103346.84;;;1.51;100.00
62708;BME280;48769;51.624;5.886;2023-01-25T08:23:33;103350.31;;;1.50;100.00
62708;BME280;48769;51.624;5.886;2023-01-25T08:26:06;103345.84;;;1.46;100.00
62708;BME280;48769;51.624;5.886;2023-01-25T08:28:31;103339.56;;;1.38;100.00
62708;BME280;48769;51.624;5.886;2023-01-25T08:31:18;103341.47;;;1.45;100.00
62708;BME280;48769;51.624;5.886;2023-01-25T08:33:44;103341.81;;;1.57;100.00
62708;BME280;48769;51.624;5.886;2023-01-25T08:36:11;103338.56;;;1.66;100.00
62708;BME280;48769;51.624;5.886;2023-01-25T08:38:37;103333.38;;;1.68;100.00
62708;BME280;48769;51.624;5.886;2023-01-25T08:41:13;103338.59;;;1.68;100.00
62708;BME280;48769;51.624;5.886;2023-01-25T08:43:39;103333.22;;;1.61;100.00
62708;BME280;48769;51.624;5.886;2023-01-25T08:46:05;103325.47;;;1.63;100.00
62708;BME280;48769;51.624;5.886;2023-01-25T08:48:30;103330.78;;;1.68;100.00
62708;BME280;48769;51.624;5.886;2023-01-25T08:50:56;103326.56;;;1.73;100.00
62708;BME280;48769;51.624;5.886;2023-01-25T08:53:21;103329.72;;;1.59;100.00
62708;BME280;48769;51.624;5.886;2023-01-25T08:55:47;103331.63;;;1.67;100.00
62708;BME280;48769;51.624;5.886;2023-01-25T08:58:13;103333.38;;;1.68;100.00
62708;BME280;48769;51.624;5.886;2023-01-25T09:00:41;103330.94;;;1.74;100.00
62708;BME280;48769;51.624;5.886;2023-01-25T09:03:07;103331.94;;;1.79;100.00
62708;BME280;48769;51.624;5.886;2023-01-25T09:05:34;103324.16;;;1.80;100.00
62708;BME280;48769;51.624;5.886;2023-01-25T09:08:00;103318.13;;;1.83;100.00
62708;BME280;48769;51.624;5.886;2023-01-25T09:10:26;103318.06;;;1.80;100.00
62708;BME280;48769;51.624;5.886;2023-01-25T09:12:51;103302.41;;;1.80;100.00
62708;BME280;48769;51.624;5.886;2023-01-25T09:15:17;103307.25;;;1.64;100.00
62708;BME280;48769;51.624;5.886;2023-01-25T09:17:42;103303.78;;;1.66;100.00
62708;BME280;48769;51.624;5.886;2023-01-25T09:20:08;103301.97;;;1.61;100.00
62708;BME280;48769;51.624;5.886;2023-01-25T09:22:33;103300.81;;;1.50;100.00
62708;BME280;48769;51.624;5.886;2023-01-25T09:24:59;103314.44;;;1.40;100.00
62708;BME280;48769;51.624;5.886;2023-01-25T09:27:24;103304.84;;;1.39;100.00
62708;BME280;48769;51.624;5.886;2023-01-25T09:29:50;103306.78;;;1.46;100.00
62708;BME280;48769;51.624;5.886;2023-01-25T09:32:15;103307.88;;;1.56;100.00
62708;BME280;48769;51.624;5.886;2023-01-25T09:34:41;103301.00;;;1.58;100.00
62708;BME280;48769;51.624;5.886;2023-01-25T09:37:06;103301.88;;;1.58;100.00
62708;BME280;48769;51.624;5.886;2023-01-25T09:39:31;103310.31;;;1.48;100.00
62708;BME280;48769;51.624;5.886;2023-01-25T09:45:07;103307.53;;;1.42;100.00
62708;BME280;48769;51.624;5.886;2023-01-25T09:53:06;103303.03;;;1.35;100.00
62708;BME280;48769;51.624;5.886;2023-01-25T09:55:38;103305.78;;;1.41;100.00
62708;BME280;48769;51.624;5.886;2023-01-25T09:58:12;103310.16;;;1.42;100.00
62708;BME280;48769;51.624;5.886;2023-01-25T10:00:43;103302.16;;;1.36;100.00
62708;BME280;48769;51.624;5.886;2023-01-25T10:05:47;103311.19;;;1.49;100.00
62708;BME280;48769;51.624;5.886;2023-01-25T10:08:28;103294.91;;;1.57;100.00
62708;BME280;48769;51.624;5.886;2023-01-25T10:11:05;103293.38;;;1.66;100.00
62708;BME280;48769;51.624;5.886;2023-01-25T10:13:32;103295.22;;;1.70;100.00
62708;BME280;48769;51.624;5.886;2023-01-25T10:16:08;103285.84;;;1.76;100.00
62708;BME280;48769;51.624;5.886;2023-01-25T10:21:23;103276.91;;;1.67;100.00
62708;BME280;48769;51.624;5.886;2023-01-25T10:26:43;103270.69;;;1.61;100.00
62708;BME280;48769;51.624;5.886;2023-01-25T10:29:18;103275.19;;;1.69;100.00
62708;BME280;48769;51.624;5.886;2023-01-25T10:32:17;103279.94;;;1.85;100.00
62708;BME280;48769;51.624;5.886;2023-01-25T10:34:47;103274.06;;;1.92;100.00
62708;BME280;48769;51.624;5.886;2023-01-25T10:37:20;103269.81;;;1.97;100.00
62708;BME280;48769;51.624;5.886;2023-01-25T10:39:55;103265.88;;;1.77;100.00
62708;BME280;48769;51.624;5.886;2023-01-25T10:42:25;103252.75;;;1.74;100.00
62708;BME280;48769;51.624;5.886;2023-01-25T10:44:52;103251.97;;;1.78;100.00
62708;BME280;48769;51.624;5.886;2023-01-25T10:47:29;103244.88;;;1.71;100.00
62708;BME280;48769;51.624;5.886;2023-01-25T10:49:58;103235.72;;;1.52;100.00
62708;BME280;48769;51.624;5.886;2023-01-25T10:52:26;103234.00;;;1.52;100.00
62708;BME280;48769;51.624;5.886;2023-01-25T10:55:18;103228.91;;;1.57;100.00
62708;BME280;48769;51.624;5.886;2023-01-25T10:57:44;103229.06;;;1.63;100.00
62708;BME280;48769;51.624;5.886;2023-01-25T11:00:23;103212.44;;;1.58;100.00
62708;BME280;48769;51.624;5.886;2023-01-25T11:02:49;103209.56;;;1.47;100.00
62708;BME280;48769;51.624;5.886;2023-01-25T11:07:44;103191.56;;;1.56;100.00
62708;BME280;48769;51.624;5.886;2023-01-25T11:10:34;103194.75;;;1.45;100.00
62708;BME280;48769;51.624;5.886;2023-01-25T11:15:37;103188.44;;;1.35;100.00
62708;BME280;48769;51.624;5.886;2023-01-25T11:18:05;103180.66;;;1.36;100.00
62708;BME280;48769;51.624;5.886;2023-01-25T11:20:31;103177.28;;;1.40;100.00
62708;BME280;48769;51.624;5.886;2023-01-25T11:22:56;103181.69;;;1.43;100.00
62708;BME280;48769;51.624;5.886;2023-01-25T11:25:32;103184.34;;;1.46;100.00
62708;BME280;48769;51.624;5.886;2023-01-25T11:30:38;103160.66;;;1.34;100.00
62708;BME280;48769;51.624;5.886;2023-01-25T11:33:09;103154.81;;;1.44;100.00
62708;BME280;48769;51.624;5.886;2023-01-25T11:35:36;103136.78;;;1.53;100.00
62708;BME280;48769;51.624;5.886;2023-01-25T11:38:16;103142.19;;;1.62;100.00
62708;BME280;48769;51.624;5.886;2023-01-25T11:40:49;103137.94;;;1.66;100.00
62708;BME280;48769;51.624;5.886;2023-01-25T11:46:21;103123.75;;;1.53;100.00
62708;BME280;48769;51.624;5.886;2023-01-25T11:57:45;103100.03;;;1.41;100.00
62708;BME280;48769;51.624;5.886;2023-01-25T12:00:20;103091.44;;;1.45;100.00
62708;BME280;48769;51.624;5.886;2023-01-25T12:03:31;103089.63;;;1.41;100.00
62708;BME280;48769;51.624;5.886;2023-01-25T12:06:18;103079.28;;;1.44;100.00
62708;BME280;48769;51.624;5.886;2023-01-25T12:11:48;103065.19;;;1.36;100.00
62708;BME280;48769;51.624;5.886;2023-01-25T12:14:34;103057.44;;;1.39;100.00
62708;BME280;48769;51.624;5.886;2023-01-25T12:20:19;103038.47;;;1.43;100.00
62708;BME280;48769;51.624;5.886;2023-01-25T12:23:21;103033.03;;;1.34;100.00
62708;BME280;48769;51.624;5.886;2023-01-25T12:28:28;103014.81;;;1.34;100.00
62708;BME280;48769;51.624;5.886;2023-01-25T12:31:02;103009.16;;;1.53;100.00
62708;BME280;48769;51.624;5.886;2023-01-25T12:33:42;103006.91;;;1.72;100.00
62708;BME280;48769;51.624;5.886;2023-01-25T12:36:14;103001.50;;;1.62;100.00
62708;BME280;48769;51.624;5.886;2023-01-25T12:38:56;102994.34;;;1.52;100.00
62708;BME280;48769;51.624;5.886;2023-01-25T12:47:01;102974.19;;;1.42;100.00
62708;BME280;48769;51.624;5.886;2023-01-25T12:49:47;102976.91;;;1.48;100.00
62708;BME280;48769;51.624;5.886;2023-01-25T12:52:35;102973.56;;;1.54;100.00
62708;BME280;48769;51.624;5.886;2023-01-25T12:55:10;102970.06;;;1.53;100.00
62708;BME280;48769;51.624;5.886;2023-01-25T12:57:58;102955.50;;;1.63;100.00
62708;BME280;48769;51.624;5.886;2023-01-25T13:00:39;102951.25;;;1.68;100.00
62708;BME280;48769;51.624;5.886;2023-01-25T13:06:08;102940.81;;;1.67;100.00
62708;BME280;48769;51.624;5.886;2023-01-25T13:08:52;102934.75;;;1.68;100.00
62708;BME280;48769;51.624;5.886;2023-01-25T13:11:26;102935.59;;;1.67;100.00
62708;BME280;48769;51.624;5.886;2023-01-25T13:19:18;102928.59;;;1.64;100.00
62708;BME280;48769;51.624;5.886;2023-01-25T13:21:45;102925.25;;;1.70;100.00
62708;BME280;48769;51.624;5.886;2023-01-25T13:24:21;102920.84;;;1.67;100.00
62708;BME280;48769;51.624;5.886;2023-01-25T13:32:01;102913.03;;;1.69;100.00
62708;BME280;48769;51.624;5.886;2023-01-25T13:37:20;102909.19;;;1.48;100.00
62708;BME280;48769;51.624;5.886;2023-01-25T13:39:55;102907.69;;;1.59;100.00
62708;BME280;48769;51.624;5.886;2023-01-25T13:42:28;102907.94;;;1.75;100.00
62708;BME280;48769;51.624;5.886;2023-01-25T13:44:58;102900.25;;;1.81;100.00
62708;BME280;48769;51.624;5.886;2023-01-25T13:47:31;102898.22;;;1.64;100.00
62708;BME280;48769;51.624;5.886;2023-01-25T13:50:17;102893.91;;;1.67;100.00
62708;BME280;48769;51.624;5.886;2023-01-25T13:53:03;102889.63;;;1.70;100.00
62708;BME280;48769;51.624;5.886;2023-01-25T13:55:42;102878.22;;;1.63;100.00
62708;BME280;48769;51.624;5.886;2023-01-25T13:58:16;102872.97;;;1.62;100.00
62708;BME280;48769;51.624;5.886;2023-01-25T14:00:56;102873.81;;;1.59;100.00
62708;BME280;48769;51.624;5.886;2023-01-25T14:03:29;102865.16;;;1.60;100.00
62708;BME280;48769;51.624;5.886;2023-01-25T14:05:55;102865.84;;;1.50;100.00
62708;BME280;48769;51.624;5.886;2023-01-25T14:08:22;102867.56;;;1.51;100.00
62708;BME280;48769;51.624;5.886;2023-01-25T14:10:50;102864.97;;;1.51;100.00
62708;BME280;48769;51.624;5.886;2023-01-25T14:13:16;102867.53;;;1.48;100.00